Portada
METAR-TAF:

METAR-TAF

Aeroports :

Bahawalpur, Pakistan

latitud: 29-20-53N, longitud: 71-43-04E, altitud: 119 m

METAR: manca

Hora: 18:44 (13:44 UTC)

Pronòstic

L'informe es va fer fa 3 hores i 59 minuts, a les 09:45 UTC
Pronòstic vàlid del 26 a les 12 UTC al 27 a les 06 UTC
Vent 10 kt del Sud
Visibilitat: 4000 m
Núvols disperses a una alçada de 4000 ft
fum
Probabilitat 30% :
Temporalment
l' 27 a les 01 UTC al 27 a les 05 UTC
Vent kt del Nord
Visibilitat: 1500 m
Núvols disperses a una alçada de 10000 ft
fum

TAF: OPBW 260945Z 2612/2706 18010KT 4000 FU SCT040 TN25/2701Z PROB30 TEMPO 2701/2705 00000KT 1500 FU SCT100

Observacions i pronòstics meteorològics de més de 4000 aeroports (METAR i TAF).

Les estacions disponibles són els punts grocs i vermells al mapa.

Posi el ratolí al punt desitjat per veure el nom de l'estació.

Feu clic per veure les observacions i els pronòstics meteorològics.

Per canviar el mapa: feu clic els botons verds amb una creu de color negre per apropar; al botó verd amb un guió per allunyar la imatge; o en les fletxes verdes per a mapes adjacents.


METAR-TAF: